sensor_id;sensor_type;location;lat;lon;timestamp;pressure;altitude;pressure_sealevel;temperature;humidity
72336;BME280;65062;48.446;8.834;2022-12-20T00:02:26;98099.66;;;-0.21;93.36
72336;BME280;65062;48.446;8.834;2022-12-20T00:05:27;98104.00;;;-0.21;93.59
72336;BME280;65062;48.446;8.834;2022-12-20T00:08:27;98105.75;;;-0.22;93.42
72336;BME280;65062;48.446;8.834;2022-12-20T00:11:28;98098.25;;;-0.25;93.68
72336;BME280;65062;48.446;8.834;2022-12-20T00:14:29;98099.56;;;-0.19;94.00
72336;BME280;65062;48.446;8.834;2022-12-20T00:17:29;98098.75;;;-0.20;94.00
72336;BME280;65062;48.446;8.834;2022-12-20T00:20:29;98082.66;;;0.02;94.04
72336;BME280;65062;48.446;8.834;2022-12-20T00:23:30;98080.94;;;0.03;93.22
72336;BME280;65062;48.446;8.834;2022-12-20T00:26:32;98080.50;;;-0.04;93.43
72336;BME280;65062;48.446;8.834;2022-12-20T00:29:32;98075.91;;;-0.12;93.39
72336;BME280;65062;48.446;8.834;2022-12-20T00:32:32;98081.16;;;-0.13;93.48
72336;BME280;65062;48.446;8.834;2022-12-20T00:35:33;98073.00;;;-0.07;93.34
72336;BME280;65062;48.446;8.834;2022-12-20T00:38:34;98067.59;;;-0.15;92.63
72336;BME280;65062;48.446;8.834;2022-12-20T00:41:35;98066.47;;;-0.24;92.51
72336;BME280;65062;48.446;8.834;2022-12-20T00:44:35;98061.81;;;-0.06;93.05
72336;BME280;65062;48.446;8.834;2022-12-20T00:47:36;98064.91;;;-0.14;92.79
72336;BME280;65062;48.446;8.834;2022-12-20T00:50:36;98057.31;;;-0.15;92.84
72336;BME280;65062;48.446;8.834;2022-12-20T00:53:37;98060.50;;;-0.24;92.91
72336;BME280;65062;48.446;8.834;2022-12-20T00:56:38;98062.13;;;-0.23;93.04
72336;BME280;65062;48.446;8.834;2022-12-20T00:59:38;98067.69;;;-0.29;93.23
72336;BME280;65062;48.446;8.834;2022-12-20T01:02:39;98076.03;;;-0.26;93.34
72336;BME280;65062;48.446;8.834;2022-12-20T01:05:39;98086.09;;;-0.23;93.56
72336;BME280;65062;48.446;8.834;2022-12-20T01:08:39;98082.22;;;-0.28;93.15
72336;BME280;65062;48.446;8.834;2022-12-20T01:11:40;98086.72;;;-0.32;93.37
72336;BME280;65062;48.446;8.834;2022-12-20T01:14:40;98093.09;;;-0.25;92.81
72336;BME280;65062;48.446;8.834;2022-12-20T01:17:41;98090.25;;;-0.33;93.56
72336;BME280;65062;48.446;8.834;2022-12-20T01:20:41;98083.75;;;-0.26;93.58
72336;BME280;65062;48.446;8.834;2022-12-20T01:23:42;98076.47;;;0.04;92.96
72336;BME280;65062;48.446;8.834;2022-12-20T01:26:43;98079.72;;;-0.05;92.18
72336;BME280;65062;48.446;8.834;2022-12-20T01:29:44;98081.78;;;-0.22;92.33
72336;BME280;65062;48.446;8.834;2022-12-20T01:32:44;98077.38;;;-0.33;92.82
72336;BME280;65062;48.446;8.834;2022-12-20T01:36:13;98076.97;;;-0.27;92.68
72336;BME280;65062;48.446;8.834;2022-12-20T01:39:15;98077.38;;;-0.33;93.07
72336;BME280;65062;48.446;8.834;2022-12-20T01:42:15;98078.38;;;-0.35;93.21
72336;BME280;65062;48.446;8.834;2022-12-20T01:45:24;98077.97;;;-0.29;93.35
72336;BME280;65062;48.446;8.834;2022-12-20T01:48:26;98070.25;;;-0.29;93.40
72336;BME280;65062;48.446;8.834;2022-12-20T01:51:28;98075.63;;;-0.20;93.54
72336;BME280;65062;48.446;8.834;2022-12-20T01:54:34;98068.22;;;-0.24;93.60
72336;BME280;65062;48.446;8.834;2022-12-20T01:57:43;98071.16;;;-0.18;93.62
72336;BME280;65062;48.446;8.834;2022-12-20T02:00:46;98050.69;;;-0.19;93.59
72336;BME280;65062;48.446;8.834;2022-12-20T02:03:48;98048.03;;;-0.18;93.35
72336;BME280;65062;48.446;8.834;2022-12-20T02:06:49;98041.34;;;-0.20;93.43
72336;BME280;65062;48.446;8.834;2022-12-20T02:09:49;98041.34;;;-0.20;93.51
72336;BME280;65062;48.446;8.834;2022-12-20T02:12:55;98043.28;;;-0.11;93.67
72336;BME280;65062;48.446;8.834;2022-12-20T02:15:58;98037.31;;;-0.12;93.74
72336;BME280;65062;48.446;8.834;2022-12-20T02:19:45;98040.41;;;-0.07;93.79
72336;BME280;65062;48.446;8.834;2022-12-20T02:29:09;98037.81;;;-0.07;93.69
72336;BME280;65062;48.446;8.834;2022-12-20T02:32:24;98027.94;;;0.00;93.77
72336;BME280;65062;48.446;8.834;2022-12-20T02:35:29;98021.88;;;-0.12;93.58
72336;BME280;65062;48.446;8.834;2022-12-20T02:38:36;98015.53;;;-0.19;93.72
72336;BME280;65062;48.446;8.834;2022-12-20T02:41:43;98015.63;;;-0.08;93.53
72336;BME280;65062;48.446;8.834;2022-12-20T02:44:53;98028.50;;;-0.20;94.23
72336;BME280;65062;48.446;8.834;2022-12-20T02:48:14;98033.94;;;-0.25;93.74
72336;BME280;65062;48.446;8.834;2022-12-20T02:51:17;98034.56;;;-0.34;93.79
72336;BME280;65062;48.446;8.834;2022-12-20T02:54:19;98020.59;;;-0.42;93.73
72336;BME280;65062;48.446;8.834;2022-12-20T02:57:47;98020.91;;;-0.34;94.07
72336;BME280;65062;48.446;8.834;2022-12-20T03:00:49;98022.88;;;-0.38;93.70
72336;BME280;65062;48.446;8.834;2022-12-20T03:03:51;98028.94;;;-0.39;93.73
72336;BME280;65062;48.446;8.834;2022-12-20T03:09:59;97998.31;;;-0.42;93.75
72336;BME280;65062;48.446;8.834;2022-12-20T03:12:59;97986.97;;;-0.39;93.72
72336;BME280;65062;48.446;8.834;2022-12-20T03:15:59;97977.00;;;-0.44;93.41
72336;BME280;65062;48.446;8.834;2022-12-20T03:19:00;97979.50;;;-0.55;93.44
72336;BME280;65062;48.446;8.834;2022-12-20T03:22:00;97991.63;;;-0.57;93.09
72336;BME280;65062;48.446;8.834;2022-12-20T03:25:00;98006.97;;;-0.68;93.08
72336;BME280;65062;48.446;8.834;2022-12-20T03:28:01;98010.97;;;-0.76;93.20
72336;BME280;65062;48.446;8.834;2022-12-20T03:31:01;98020.94;;;-0.72;93.73
72336;BME280;65062;48.446;8.834;2022-12-20T03:34:02;98019.69;;;-0.66;93.79
72336;BME280;65062;48.446;8.834;2022-12-20T03:37:02;98011.56;;;-0.60;93.71
72336;BME280;65062;48.446;8.834;2022-12-20T03:40:04;97997.09;;;-0.61;94.06
72336;BME280;65062;48.446;8.834;2022-12-20T03:43:04;97983.31;;;-0.60;94.21
72336;BME280;65062;48.446;8.834;2022-12-20T03:46:05;97977.63;;;-0.53;94.42
72336;BME280;65062;48.446;8.834;2022-12-20T03:49:05;97977.22;;;-0.47;94.37
72336;BME280;65062;48.446;8.834;2022-12-20T03:52:06;97976.59;;;-0.38;94.16
72336;BME280;65062;48.446;8.834;2022-12-20T03:55:07;97979.34;;;-0.28;93.99
72336;BME280;65062;48.446;8.834;2022-12-20T03:58:08;97984.72;;;-0.31;93.95
72336;BME280;65062;48.446;8.834;2022-12-20T04:01:19;97986.03;;;-0.26;93.95
72336;BME280;65062;48.446;8.834;2022-12-20T04:04:20;97973.91;;;-0.24;94.14
72336;BME280;65062;48.446;8.834;2022-12-20T04:07:21;97981.38;;;-0.21;93.93
72336;BME280;65062;48.446;8.834;2022-12-20T04:10:21;97995.25;;;-0.11;93.86
72336;BME280;65062;48.446;8.834;2022-12-20T04:13:21;97993.91;;;-0.16;93.84
72336;BME280;65062;48.446;8.834;2022-12-20T04:16:24;97996.06;;;-0.10;94.02
72336;BME280;65062;48.446;8.834;2022-12-20T04:19:25;97995.84;;;-0.07;93.95
72336;BME280;65062;48.446;8.834;2022-12-20T04:22:25;97989.16;;;-0.10;93.93
72336;BME280;65062;48.446;8.834;2022-12-20T04:25:26;97982.97;;;-0.07;93.83
72336;BME280;65062;48.446;8.834;2022-12-20T04:28:27;97981.38;;;0.03;93.82
72336;BME280;65062;48.446;8.834;2022-12-20T04:31:27;97972.78;;;-0.09;93.65
72336;BME280;65062;48.446;8.834;2022-12-20T04:34:28;97968.47;;;-0.08;93.67
72336;BME280;65062;48.446;8.834;2022-12-20T04:37:29;97957.53;;;0.01;93.69
72336;BME280;65062;48.446;8.834;2022-12-20T04:40:29;97958.81;;;-0.05;93.72
72336;BME280;65062;48.446;8.834;2022-12-20T04:43:30;97956.94;;;-0.03;93.89
72336;BME280;65062;48.446;8.834;2022-12-20T04:46:30;97966.91;;;0.02;93.87
72336;BME280;65062;48.446;8.834;2022-12-20T04:49:30;97968.16;;;-0.04;93.83
72336;BME280;65062;48.446;8.834;2022-12-20T04:52:31;97957.53;;;0.01;93.82
72336;BME280;65062;48.446;8.834;2022-12-20T04:55:50;97942.38;;;0.09;93.74
72336;BME280;65062;48.446;8.834;2022-12-20T04:58:53;97941.34;;;0.12;93.95
72336;BME280;65062;48.446;8.834;2022-12-20T05:01:53;97942.97;;;0.13;93.86
72336;BME280;65062;48.446;8.834;2022-12-20T05:04:54;97934.22;;;0.15;93.85
72336;BME280;65062;48.446;8.834;2022-12-20T05:07:54;97926.38;;;0.17;93.51
72336;BME280;65062;48.446;8.834;2022-12-20T05:10:55;97923.91;;;0.15;93.71
72336;BME280;65062;48.446;8.834;2022-12-20T05:13:55;97926.03;;;0.21;93.59
72336;BME280;65062;48.446;8.834;2022-12-20T05:16:56;97931.53;;;0.17;93.68
72336;BME280;65062;48.446;8.834;2022-12-20T05:19:56;97920.31;;;0.18;93.56
72336;BME280;65062;48.446;8.834;2022-12-20T05:22:57;97923.25;;;0.24;93.74
72336;BME280;65062;48.446;8.834;2022-12-20T05:26:15;97914.69;;;0.24;93.45
72336;BME280;65062;48.446;8.834;2022-12-20T05:29:18;97907.81;;;0.24;93.52
72336;BME280;65062;48.446;8.834;2022-12-20T05:32:19;97909.91;;;0.19;93.48
72336;BME280;65062;48.446;8.834;2022-12-20T05:35:19;97917.16;;;0.25;93.75
72336;BME280;65062;48.446;8.834;2022-12-20T05:38:20;97919.38;;;0.19;93.88
72336;BME280;65062;48.446;8.834;2022-12-20T05:41:20;97919.50;;;0.17;93.78
72336;BME280;65062;48.446;8.834;2022-12-20T05:44:21;97906.63;;;0.17;93.54
72336;BME280;65062;48.446;8.834;2022-12-20T05:47:21;97909.09;;;0.19;94.08
72336;BME280;65062;48.446;8.834;2022-12-20T05:50:21;97914.00;;;0.22;94.00
72336;BME280;65062;48.446;8.834;2022-12-20T05:53:22;97920.47;;;0.27;94.00
72336;BME280;65062;48.446;8.834;2022-12-20T05:56:22;97917.06;;;0.27;94.06
72336;BME280;65062;48.446;8.834;2022-12-20T05:59:23;97913.38;;;0.42;94.10
72336;BME280;65062;48.446;8.834;2022-12-20T06:02:23;97908.72;;;0.47;93.62
72336;BME280;65062;48.446;8.834;2022-12-20T06:05:23;97913.75;;;0.48;93.86
72336;BME280;65062;48.446;8.834;2022-12-20T06:08:24;97911.19;;;0.48;94.08
72336;BME280;65062;48.446;8.834;2022-12-20T06:11:24;97904.97;;;0.51;94.45
72336;BME280;65062;48.446;8.834;2022-12-20T06:14:25;97915.66;;;0.68;93.72
72336;BME280;65062;48.446;8.834;2022-12-20T06:17:25;97908.88;;;0.78;94.11
72336;BME280;65062;48.446;8.834;2022-12-20T06:20:25;97909.59;;;0.80;93.85
72336;BME280;65062;48.446;8.834;2022-12-20T06:23:26;97910.88;;;0.75;93.43
72336;BME280;65062;48.446;8.834;2022-12-20T06:26:26;97899.28;;;0.80;93.26
72336;BME280;65062;48.446;8.834;2022-12-20T06:29:27;97902.22;;;0.76;92.96
72336;BME280;65062;48.446;8.834;2022-12-20T06:32:27;97897.88;;;0.76;92.78
72336;BME280;65062;48.446;8.834;2022-12-20T06:35:28;97890.63;;;0.70;92.74
72336;BME280;65062;48.446;8.834;2022-12-20T06:38:29;97888.03;;;0.70;92.97
72336;BME280;65062;48.446;8.834;2022-12-20T06:41:29;97886.88;;;0.63;93.12
72336;BME280;65062;48.446;8.834;2022-12-20T06:44:30;97887.44;;;0.56;93.18
72336;BME280;65062;48.446;8.834;2022-12-20T06:47:30;97889.84;;;0.46;93.22
72336;BME280;65062;48.446;8.834;2022-12-20T06:50:30;97894.44;;;0.43;93.58
72336;BME280;65062;48.446;8.834;2022-12-20T06:53:31;97887.16;;;0.37;93.59
72336;BME280;65062;48.446;8.834;2022-12-20T06:56:31;97895.34;;;0.42;93.45
72336;BME280;65062;48.446;8.834;2022-12-20T06:59:31;97902.84;;;0.45;93.50
72336;BME280;65062;48.446;8.834;2022-12-20T07:02:32;97894.53;;;0.41;93.62
72336;BME280;65062;48.446;8.834;2022-12-20T07:05:32;97897.34;;;0.38;93.91
72336;BME280;65062;48.446;8.834;2022-12-20T07:08:32;97905.88;;;0.39;94.26
72336;BME280;65062;48.446;8.834;2022-12-20T07:11:33;97903.69;;;0.45;94.24
72336;BME280;65062;48.446;8.834;2022-12-20T07:14:33;97903.44;;;0.48;94.00
72336;BME280;65062;48.446;8.834;2022-12-20T07:17:33;97907.31;;;0.54;93.87
72336;BME280;65062;48.446;8.834;2022-12-20T07:20:34;97900.31;;;0.67;94.38
72336;BME280;65062;48.446;8.834;2022-12-20T07:23:35;97906.88;;;0.71;93.80
72336;BME280;65062;48.446;8.834;2022-12-20T07:26:35;97904.19;;;0.72;93.38
72336;BME280;65062;48.446;8.834;2022-12-20T07:29:35;97898.34;;;0.70;93.50
72336;BME280;65062;48.446;8.834;2022-12-20T07:32:39;97895.31;;;0.76;93.58
72336;BME280;65062;48.446;8.834;2022-12-20T07:35:39;97896.59;;;0.82;93.53
72336;BME280;65062;48.446;8.834;2022-12-20T07:38:40;97887.81;;;0.84;93.21
72336;BME280;65062;48.446;8.834;2022-12-20T07:41:41;97883.16;;;0.89;93.21
72336;BME280;65062;48.446;8.834;2022-12-20T07:44:42;97883.50;;;0.85;93.01
72336;BME280;65062;48.446;8.834;2022-12-20T07:47:42;97884.31;;;0.85;93.11
72336;BME280;65062;48.446;8.834;2022-12-20T07:50:43;97878.22;;;0.86;92.79
72336;BME280;65062;48.446;8.834;2022-12-20T07:53:46;97893.44;;;0.89;93.42
72336;BME280;65062;48.446;8.834;2022-12-20T07:56:51;97901.06;;;0.91;92.74
72336;BME280;65062;48.446;8.834;2022-12-20T07:59:56;97894.53;;;1.09;92.58
72336;BME280;65062;48.446;8.834;2022-12-20T08:03:03;97888.06;;;1.03;92.54
72336;BME280;65062;48.446;8.834;2022-12-20T08:06:06;97901.53;;;1.07;92.41
72336;BME280;65062;48.446;8.834;2022-12-20T08:09:08;97897.19;;;1.18;91.84
72336;BME280;65062;48.446;8.834;2022-12-20T08:12:13;97886.19;;;1.16;92.08
72336;BME280;65062;48.446;8.834;2022-12-20T08:15:14;97878.44;;;1.27;92.19
72336;BME280;65062;48.446;8.834;2022-12-20T08:18:15;97882.06;;;1.36;92.30
72336;BME280;65062;48.446;8.834;2022-12-20T08:21:15;97875.59;;;1.41;91.89
72336;BME280;65062;48.446;8.834;2022-12-20T08:24:16;97869.72;;;1.50;90.98
72336;BME280;65062;48.446;8.834;2022-12-20T08:27:16;97863.38;;;1.65;90.77
72336;BME280;65062;48.446;8.834;2022-12-20T08:30:17;97865.00;;;1.66;90.61
72336;BME280;65062;48.446;8.834;2022-12-20T08:33:17;97862.78;;;1.73;90.86
72336;BME280;65062;48.446;8.834;2022-12-20T08:36:18;97866.31;;;1.72;90.82
72336;BME280;65062;48.446;8.834;2022-12-20T08:39:19;97871.91;;;1.77;90.62
72336;BME280;65062;48.446;8.834;2022-12-20T08:42:19;97864.53;;;1.72;89.44
72336;BME280;65062;48.446;8.834;2022-12-20T08:45:20;97868.94;;;1.81;89.78
72336;BME280;65062;48.446;8.834;2022-12-20T08:48:20;97857.50;;;1.74;89.87
72336;BME280;65062;48.446;8.834;2022-12-20T08:51:21;97865.31;;;1.84;89.42
72336;BME280;65062;48.446;8.834;2022-12-20T08:54:21;97866.84;;;1.86;90.11
72336;BME280;65062;48.446;8.834;2022-12-20T08:57:22;97869.28;;;1.88;90.04
72336;BME280;65062;48.446;8.834;2022-12-20T09:00:22;97868.94;;;1.92;89.96
72336;BME280;65062;48.446;8.834;2022-12-20T09:03:22;97862.09;;;2.02;88.68
72336;BME280;65062;48.446;8.834;2022-12-20T09:06:23;97843.78;;;2.05;89.87
72336;BME280;65062;48.446;8.834;2022-12-20T09:09:23;97848.09;;;2.05;89.78
72336;BME280;65062;48.446;8.834;2022-12-20T09:12:23;97851.16;;;2.31;89.17
72336;BME280;65062;48.446;8.834;2022-12-20T09:15:24;97850.66;;;2.57;88.69
72336;BME280;65062;48.446;8.834;2022-12-20T09:18:26;97852.03;;;2.41;87.23
72336;BME280;65062;48.446;8.834;2022-12-20T09:21:27;97855.69;;;2.38;88.19
72336;BME280;65062;48.446;8.834;2022-12-20T09:24:28;97854.41;;;2.53;87.88
72336;BME280;65062;48.446;8.834;2022-12-20T09:27:28;97867.16;;;2.66;87.17
72336;BME280;65062;48.446;8.834;2022-12-20T09:30:29;97867.16;;;2.66;87.27
72336;BME280;65062;48.446;8.834;2022-12-20T09:33:31;97858.88;;;2.72;86.93
72336;BME280;65062;48.446;8.834;2022-12-20T09:36:31;97836.13;;;2.96;85.69
72336;BME280;65062;48.446;8.834;2022-12-20T09:39:32;97835.47;;;2.94;85.96
72336;BME280;65062;48.446;8.834;2022-12-20T09:42:32;97832.19;;;2.92;86.12
72336;BME280;65062;48.446;8.834;2022-12-20T09:45:34;97828.16;;;3.08;86.38
72336;BME280;65062;48.446;8.834;2022-12-20T09:48:37;97828.09;;;3.29;84.74
72336;BME280;65062;48.446;8.834;2022-12-20T10:01:23;97822.97;;;3.57;85.03
72336;BME280;65062;48.446;8.834;2022-12-20T10:04:28;97826.91;;;3.52;83.92
72336;BME280;65062;48.446;8.834;2022-12-20T10:07:49;97824.31;;;3.52;84.54
72336;BME280;65062;48.446;8.834;2022-12-20T10:10:58;97802.13;;;3.49;85.02
72336;BME280;65062;48.446;8.834;2022-12-20T10:20:59;97794.47;;;3.29;85.70
72336;BME280;65062;48.446;8.834;2022-12-20T10:24:12;97790.63;;;3.14;85.52
72336;BME280;65062;48.446;8.834;2022-12-20T10:27:17;97794.63;;;2.97;86.42
72336;BME280;65062;48.446;8.834;2022-12-20T10:30:22;97792.75;;;2.99;86.47
72336;BME280;65062;48.446;8.834;2022-12-20T10:33:23;97783.19;;;2.90;87.01
72336;BME280;65062;48.446;8.834;2022-12-20T10:39:40;97791.59;;;2.83;87.09
72336;BME280;65062;48.446;8.834;2022-12-20T10:42:41;97777.91;;;2.92;86.71
72336;BME280;65062;48.446;8.834;2022-12-20T10:45:42;97772.84;;;2.90;87.22
72336;BME280;65062;48.446;8.834;2022-12-20T10:48:46;97765.09;;;2.90;86.87
72336;BME280;65062;48.446;8.834;2022-12-20T10:51:55;97769.63;;;2.98;87.27
72336;BME280;65062;48.446;8.834;2022-12-20T10:54:55;97766.47;;;2.94;86.81
72336;BME280;65062;48.446;8.834;2022-12-20T10:58:01;97756.31;;;3.02;87.14
72336;BME280;65062;48.446;8.834;2022-12-20T11:01:14;97756.47;;;3.10;87.17
72336;BME280;65062;48.446;8.834;2022-12-20T11:04:31;97737.00;;;3.16;87.05
72336;BME280;65062;48.446;8.834;2022-12-20T11:07:33;97738.94;;;3.23;86.38
72336;BME280;65062;48.446;8.834;2022-12-20T11:10:33;97740.16;;;3.29;86.17
72336;BME280;65062;48.446;8.834;2022-12-20T11:13:33;97739.34;;;3.47;85.15
72336;BME280;65062;48.446;8.834;2022-12-20T11:16:36;97733.09;;;3.50;85.78
72336;BME280;65062;48.446;8.834;2022-12-20T11:32:55;97711.56;;;3.40;85.46
72336;BME280;65062;48.446;8.834;2022-12-20T11:36:07;97698.09;;;3.17;86.43
72336;BME280;65062;48.446;8.834;2022-12-20T11:52:39;97665.97;;;3.20;86.62
72336;BME280;65062;48.446;8.834;2022-12-20T11:55:43;97667.88;;;3.27;86.63
72336;BME280;65062;48.446;8.834;2022-12-20T11:58:57;97654.13;;;3.46;86.96
72336;BME280;65062;48.446;8.834;2022-12-20T12:02:22;97652.06;;;3.68;85.24
72336;BME280;65062;48.446;8.834;2022-12-20T12:05:25;97639.63;;;3.81;84.35
72336;BME280;65062;48.446;8.834;2022-12-20T12:11:44;97638.78;;;4.27;83.46
72336;BME280;65062;48.446;8.834;2022-12-20T12:18:18;97656.19;;;4.89;79.74
72336;BME280;65062;48.446;8.834;2022-12-20T12:21:23;97653.72;;;4.70;80.15
72336;BME280;65062;48.446;8.834;2022-12-20T12:24:28;97650.03;;;4.72;80.34
72336;BME280;65062;48.446;8.834;2022-12-20T12:27:30;97649.84;;;4.56;80.04
72336;BME280;65062;48.446;8.834;2022-12-20T12:30:36;97653.28;;;4.20;81.87
72336;BME280;65062;48.446;8.834;2022-12-20T12:33:46;97634.03;;;3.86;83.23
72336;BME280;65062;48.446;8.834;2022-12-20T12:43:50;97624.41;;;3.69;85.34
72336;BME280;65062;48.446;8.834;2022-12-20T12:46:58;97617.06;;;3.64;83.61
72336;BME280;65062;48.446;8.834;2022-12-20T12:50:01;97622.38;;;3.53;84.79
72336;BME280;65062;48.446;8.834;2022-12-20T12:53:03;97620.06;;;3.60;84.55
72336;BME280;65062;48.446;8.834;2022-12-20T13:02:35;97622.56;;;3.88;83.19
72336;BME280;65062;48.446;8.834;2022-12-20T13:05:47;97620.16;;;3.68;83.05
72336;BME280;65062;48.446;8.834;2022-12-20T13:18:56;97609.75;;;3.87;82.98
72336;BME280;65062;48.446;8.834;2022-12-20T13:21:57;97598.78;;;3.75;83.53
72336;BME280;65062;48.446;8.834;2022-12-20T13:25:03;97599.31;;;3.79;83.92
72336;BME280;65062;48.446;8.834;2022-12-20T13:44:32;97575.28;;;5.63;78.98
72336;BME280;65062;48.446;8.834;2022-12-20T13:47:37;97561.44;;;5.55;78.08
72336;BME280;65062;48.446;8.834;2022-12-20T13:50:40;97552.03;;;5.79;77.81
72336;BME280;65062;48.446;8.834;2022-12-20T13:54:06;97545.59;;;7.23;72.26
72336;BME280;65062;48.446;8.834;2022-12-20T13:57:08;97541.09;;;9.69;62.83
72336;BME280;65062;48.446;8.834;2022-12-20T14:00:21;97553.69;;;11.03;57.67
72336;BME280;65062;48.446;8.834;2022-12-20T14:03:27;97556.34;;;12.95;51.95
72336;BME280;65062;48.446;8.834;2022-12-20T14:06:28;97550.09;;;14.19;47.95
72336;BME280;65062;48.446;8.834;2022-12-20T14:09:34;97547.19;;;14.53;47.21
72336;BME280;65062;48.446;8.834;2022-12-20T14:12:34;97544.75;;;12.69;49.27
72336;BME280;65062;48.446;8.834;2022-12-20T14:15:35;97547.28;;;11.06;53.41
72336;BME280;65062;48.446;8.834;2022-12-20T14:18:35;97557.56;;;8.73;60.56
72336;BME280;65062;48.446;8.834;2022-12-20T14:21:39;97555.34;;;7.05;65.65
72336;BME280;65062;48.446;8.834;2022-12-20T14:24:42;97553.41;;;6.33;71.62
72336;BME280;65062;48.446;8.834;2022-12-20T14:27:44;97536.84;;;5.41;73.72
72336;BME280;65062;48.446;8.834;2022-12-20T14:30:44;97549.09;;;4.88;77.21
72336;BME280;65062;48.446;8.834;2022-12-20T14:33:45;97551.25;;;4.30;79.54
72336;BME280;65062;48.446;8.834;2022-12-20T14:36:49;97551.09;;;4.05;80.43
72336;BME280;65062;48.446;8.834;2022-12-20T14:40:16;97556.19;;;3.60;81.78
72336;BME280;65062;48.446;8.834;2022-12-20T14:43:35;97548.22;;;3.35;82.74
72336;BME280;65062;48.446;8.834;2022-12-20T14:46:37;97541.44;;;3.34;83.88
72336;BME280;65062;48.446;8.834;2022-12-20T14:49:37;97532.28;;;3.30;83.94
72336;BME280;65062;48.446;8.834;2022-12-20T14:52:40;97538.28;;;3.21;83.87
72336;BME280;65062;48.446;8.834;2022-12-20T14:55:44;97530.28;;;3.05;85.08
72336;BME280;65062;48.446;8.834;2022-12-20T14:58:47;97537.81;;;2.98;85.13
72336;BME280;65062;48.446;8.834;2022-12-20T15:05:52;97537.00;;;2.88;86.25
72336;BME280;65062;48.446;8.834;2022-12-20T15:08:53;97528.94;;;2.72;86.47
72336;BME280;65062;48.446;8.834;2022-12-20T15:11:54;97526.63;;;2.69;87.08
72336;BME280;65062;48.446;8.834;2022-12-20T15:14:55;97521.19;;;2.72;86.94
72336;BME280;65062;48.446;8.834;2022-12-20T15:17:55;97516.28;;;2.50;87.29
72336;BME280;65062;48.446;8.834;2022-12-20T15:24:15;97523.63;;;2.36;89.19
72336;BME280;65062;48.446;8.834;2022-12-20T15:27:18;97512.63;;;2.34;89.33
72336;BME280;65062;48.446;8.834;2022-12-20T15:30:19;97523.47;;;2.18;89.17
72336;BME280;65062;48.446;8.834;2022-12-20T15:33:27;97523.31;;;2.19;89.57
72336;BME280;65062;48.446;8.834;2022-12-20T15:36:29;97529.97;;;2.12;89.41
72336;BME280;65062;48.446;8.834;2022-12-20T15:39:31;97529.00;;;2.13;89.71
72336;BME280;65062;48.446;8.834;2022-12-20T15:42:32;97529.16;;;2.12;89.50
72336;BME280;65062;48.446;8.834;2022-12-20T15:45:32;97545.03;;;2.07;89.63
72336;BME280;65062;48.446;8.834;2022-12-20T15:48:32;97548.03;;;2.12;90.43
72336;BME280;65062;48.446;8.834;2022-12-20T15:51:36;97544.09;;;2.08;90.06
72336;BME280;65062;48.446;8.834;2022-12-20T15:54:37;97541.25;;;2.11;90.13
72336;BME280;65062;48.446;8.834;2022-12-20T15:57:37;97533.38;;;2.13;90.16
72336;BME280;65062;48.446;8.834;2022-12-20T16:00:39;97530.34;;;1.98;89.49
72336;BME280;65062;48.446;8.834;2022-12-20T16:03:42;97534.97;;;2.04;89.96
72336;BME280;65062;48.446;8.834;2022-12-20T16:06:43;97526.84;;;2.09;89.98
72336;BME280;65062;48.446;8.834;2022-12-20T16:09:44;97533.78;;;2.08;90.37
72336;BME280;65062;48.446;8.834;2022-12-20T16:12:44;97544.91;;;2.09;89.89
72336;BME280;65062;48.446;8.834;2022-12-20T16:15:45;97544.19;;;1.97;90.32
72336;BME280;65062;48.446;8.834;2022-12-20T16:18:45;97553.97;;;1.94;90.14
72336;BME280;65062;48.446;8.834;2022-12-20T16:21:50;97552.19;;;1.94;90.53
72336;BME280;65062;48.446;8.834;2022-12-20T16:24:50;97550.81;;;1.90;90.71
72336;BME280;65062;48.446;8.834;2022-12-20T16:27:51;97542.38;;;1.88;90.95
72336;BME280;65062;48.446;8.834;2022-12-20T16:30:51;97542.66;;;1.85;90.91
72336;BME280;65062;48.446;8.834;2022-12-20T16:33:53;97534.13;;;1.94;90.02
72336;BME280;65062;48.446;8.834;2022-12-20T16:36:53;97537.50;;;1.85;90.78
72336;BME280;65062;48.446;8.834;2022-12-20T16:39:54;97541.94;;;1.74;90.58
72336;BME280;65062;48.446;8.834;2022-12-20T16:42:55;97525.09;;;1.79;90.81
72336;BME280;65062;48.446;8.834;2022-12-20T16:45:55;97537.75;;;1.82;91.29
72336;BME280;65062;48.446;8.834;2022-12-20T16:48:57;97528.63;;;1.78;91.00
72336;BME280;65062;48.446;8.834;2022-12-20T16:51:58;97524.88;;;1.92;90.29
72336;BME280;65062;48.446;8.834;2022-12-20T16:54:59;97521.09;;;1.86;90.85
72336;BME280;65062;48.446;8.834;2022-12-20T16:57:59;97539.47;;;2.02;90.63
72336;BME280;65062;48.446;8.834;2022-12-20T17:00:59;97533.34;;;1.94;90.05
72336;BME280;65062;48.446;8.834;2022-12-20T17:04:01;97523.41;;;1.89;89.85
72336;BME280;65062;48.446;8.834;2022-12-20T17:07:02;97524.84;;;1.82;90.83
72336;BME280;65062;48.446;8.834;2022-12-20T17:10:02;97522.19;;;1.93;91.11
72336;BME280;65062;48.446;8.834;2022-12-20T17:13:03;97516.56;;;1.79;90.64
72336;BME280;65062;48.446;8.834;2022-12-20T17:16:03;97519.56;;;1.84;91.02
72336;BME280;65062;48.446;8.834;2022-12-20T17:19:04;97519.53;;;1.74;90.62
72336;BME280;65062;48.446;8.834;2022-12-20T17:22:05;97515.47;;;1.81;90.49
72336;BME280;65062;48.446;8.834;2022-12-20T17:25:12;97509.78;;;1.78;91.26
72336;BME280;65062;48.446;8.834;2022-12-20T17:28:16;97500.00;;;1.72;91.18
72336;BME280;65062;48.446;8.834;2022-12-20T17:34:27;97496.84;;;1.68;90.81
72336;BME280;65062;48.446;8.834;2022-12-20T17:37:27;97484.59;;;1.61;90.06
72336;BME280;65062;48.446;8.834;2022-12-20T17:40:28;97491.50;;;1.60;90.62
72336;BME280;65062;48.446;8.834;2022-12-20T17:43:29;97491.13;;;1.65;90.76
72336;BME280;65062;48.446;8.834;2022-12-20T17:46:30;97490.72;;;1.60;91.04
72336;BME280;65062;48.446;8.834;2022-12-20T17:49:30;97493.69;;;1.65;91.02
72336;BME280;65062;48.446;8.834;2022-12-20T17:52:30;97480.16;;;1.72;91.00
72336;BME280;65062;48.446;8.834;2022-12-20T17:55:31;97491.34;;;1.52;90.88
72336;BME280;65062;48.446;8.834;2022-12-20T17:58:31;97484.63;;;1.70;91.38
72336;BME280;65062;48.446;8.834;2022-12-20T18:01:33;97493.16;;;1.61;91.52
72336;BME280;65062;48.446;8.834;2022-12-20T18:04:34;97490.19;;;1.66;91.60
72336;BME280;65062;48.446;8.834;2022-12-20T18:07:34;97481.19;;;1.60;90.87
72336;BME280;65062;48.446;8.834;2022-12-20T18:10:36;97476.03;;;1.60;90.87